createdAt,value
2022-11-17T00:00:42.669Z,12.60
2022-11-17T00:03:15.851Z,12.05
2022-11-17T00:05:44.887Z,10.50
2022-11-17T00:08:12.022Z,11.85
2022-11-17T00:10:39.201Z,12.13
2022-11-17T00:13:24.580Z,11.65
2022-11-17T00:15:51.786Z,11.55
2022-11-17T00:18:37.706Z,11.20
2022-11-17T00:21:21.429Z,12.27
2022-11-17T00:23:49.852Z,10.82
2022-11-17T00:27:02.783Z,11.10
2022-11-17T00:29:30.292Z,10.80
2022-11-17T00:32:17.038Z,10.63
2022-11-17T00:34:44.173Z,10.68
2022-11-17T00:37:13.254Z,10.93
2022-11-17T00:39:40.166Z,9.43
2022-11-17T00:42:07.244Z,9.70
2022-11-17T00:44:34.058Z,9.98
2022-11-17T00:47:01.159Z,10.48
2022-11-17T00:49:27.964Z,9.43
2022-11-17T00:51:56.423Z,9.60
2022-11-17T00:54:24.011Z,9.60
2022-11-17T00:56:51.397Z,9.48
2022-11-17T00:59:18.464Z,9.45
2022-11-17T01:01:48.000Z,9.45
2022-11-17T01:04:15.888Z,9.25
2022-11-17T01:06:46.941Z,9.48
2022-11-17T01:09:20.794Z,9.30
2022-11-17T01:11:50.970Z,9.70
2022-11-17T01:14:22.663Z,10.27
2022-11-17T01:16:50.928Z,9.82
2022-11-17T01:19:19.004Z,9.52
2022-11-17T01:21:47.147Z,9.05
2022-11-17T01:24:16.490Z,9.57
2022-11-17T01:26:45.877Z,9.30
2022-11-17T01:29:17.244Z,9.77
2022-11-17T01:31:49.157Z,9.20
2022-11-17T01:34:16.035Z,8.35
2022-11-17T01:37:03.117Z,8.00
2022-11-17T01:39:32.215Z,8.65
2022-11-17T01:42:16.258Z,8.25
2022-11-17T01:44:54.664Z,8.05
2022-11-17T01:47:33.730Z,7.68
2022-11-17T01:50:39.999Z,7.15
2022-11-17T01:53:14.082Z,7.45
2022-11-17T01:55:50.505Z,8.13
2022-11-17T01:58:37.943Z,8.07
2022-11-17T02:01:04.990Z,4.80
2022-11-17T02:03:34.844Z,4.07
2022-11-17T02:06:15.583Z,4.70
2022-11-17T02:08:49.242Z,3.67
2022-11-17T02:11:19.532Z,3.45
2022-11-17T02:13:47.131Z,3.03
2022-11-17T02:16:16.688Z,3.35
2022-11-17T02:18:46.817Z,3.55
2022-11-17T02:22:05.833Z,3.50
2022-11-17T02:25:05.187Z,3.85
2022-11-17T02:28:00.652Z,3.92
2022-11-17T02:33:38.701Z,4.00
2022-11-17T02:36:22.893Z,3.75
2022-11-17T02:39:20.167Z,4.18
2022-11-17T02:42:01.250Z,27.00
2022-11-17T02:44:47.549Z,6.25
2022-11-17T02:47:23.820Z,4.38
2022-11-17T02:49:59.039Z,4.65
2022-11-17T02:52:29.794Z,4.03
2022-11-17T02:55:08.306Z,4.53
2022-11-17T02:57:41.591Z,4.78
2022-11-17T03:00:18.862Z,4.22
2022-11-17T03:03:23.366Z,4.35
2022-11-17T03:06:10.965Z,4.63
2022-11-17T03:09:21.874Z,4.45
2022-11-17T03:11:58.158Z,4.72
2022-11-17T03:14:45.102Z,4.47
2022-11-17T03:17:23.786Z,4.30
2022-11-17T03:20:19.641Z,4.20
2022-11-17T03:23:08.667Z,4.60
2022-11-17T03:25:41.640Z,4.38
2022-11-17T03:28:12.442Z,5.10
2022-11-17T03:30:45.536Z,3.72
2022-11-17T03:33:20.144Z,3.92
2022-11-17T03:36:01.343Z,4.22
2022-11-17T03:38:35.491Z,3.75
2022-11-17T03:41:06.991Z,3.92
2022-11-17T03:43:34.724Z,3.83
2022-11-17T03:46:13.141Z,3.53
2022-11-17T03:48:50.282Z,3.15
2022-11-17T03:51:25.212Z,3.60
2022-11-17T03:53:54.671Z,3.40
2022-11-17T03:57:01.092Z,3.95
2022-11-17T04:02:35.915Z,3.40
2022-11-17T04:05:05.974Z,3.88
2022-11-17T04:07:45.710Z,3.95
2022-11-17T04:10:19.355Z,3.63
2022-11-17T04:13:07.639Z,3.47
2022-11-17T04:15:52.911Z,4.00
2022-11-17T04:18:22.173Z,3.83
2022-11-17T04:20:55.345Z,3.50
2022-11-17T04:23:25.417Z,4.38
2022-11-17T04:26:14.748Z,4.32
2022-11-17T04:28:49.434Z,3.63
2022-11-17T04:31:19.029Z,4.88
2022-11-17T04:33:58.787Z,4.57
2022-11-17T04:36:46.168Z,4.28
2022-11-17T04:39:15.781Z,4.07
2022-11-17T04:42:03.208Z,4.40
2022-11-17T04:44:32.724Z,4.30
2022-11-17T04:47:03.068Z,4.20
2022-11-17T04:49:32.129Z,4.70
2022-11-17T04:51:59.075Z,5.00
2022-11-17T04:54:26.208Z,4.55
2022-11-17T04:56:54.678Z,4.68
2022-11-17T04:59:22.342Z,5.30
2022-11-17T05:01:50.143Z,4.93
2022-11-17T05:04:38.388Z,5.43
2022-11-17T05:07:06.457Z,5.53
2022-11-17T05:09:33.616Z,5.20
2022-11-17T05:12:18.949Z,5.45
2022-11-17T05:14:49.080Z,6.20
2022-11-17T05:17:16.677Z,6.15
2022-11-17T05:19:47.144Z,6.47
2022-11-17T05:22:51.270Z,4.80
2022-11-17T05:25:18.590Z,5.97
2022-11-17T05:27:45.371Z,5.50
2022-11-17T05:30:13.138Z,6.47
2022-11-17T05:32:39.971Z,6.68
2022-11-17T05:35:07.608Z,6.30
2022-11-17T05:37:34.377Z,7.15
2022-11-17T05:40:01.378Z,5.70
2022-11-17T05:42:28.167Z,6.05
2022-11-17T05:44:55.291Z,6.05
2022-11-17T05:47:22.115Z,5.30
2022-11-17T05:49:49.110Z,5.63
2022-11-17T05:52:15.989Z,6.20
2022-11-17T05:54:43.172Z,5.93
2022-11-17T05:57:19.894Z,6.28
2022-11-17T05:59:55.420Z,6.13
2022-11-17T06:02:54.763Z,6.28
2022-11-17T06:05:24.010Z,5.60
2022-11-17T06:07:54.909Z,6.40
2022-11-17T06:10:21.648Z,5.72
2022-11-17T06:12:48.890Z,6.10
2022-11-17T06:15:15.899Z,6.63
2022-11-17T06:17:58.477Z,6.68
2022-11-17T06:20:30.526Z,6.68
2022-11-17T06:23:05.263Z,6.10
2022-11-17T06:25:35.400Z,6.55
2022-11-17T06:28:07.851Z,6.68
2022-11-17T06:30:37.556Z,7.10
2022-11-17T06:33:10.598Z,6.25
2022-11-17T06:35:38.655Z,6.82
2022-11-17T06:38:05.820Z,6.47
2022-11-17T06:40:32.711Z,7.07
2022-11-17T06:43:12.536Z,7.50
2022-11-17T06:45:46.042Z,7.18
2022-11-17T06:48:16.834Z,6.78
2022-11-17T06:50:44.540Z,7.32
2022-11-17T06:53:12.857Z,7.50
2022-11-17T06:55:39.972Z,7.57
2022-11-17T06:58:11.735Z,7.95
2022-11-17T07:00:39.049Z,8.27
2022-11-17T07:03:09.297Z,8.48
2022-11-17T07:05:40.089Z,7.07
2022-11-17T07:08:08.750Z,7.05
2022-11-17T07:10:36.708Z,7.45
2022-11-17T07:13:04.036Z,8.70
2022-11-17T07:15:31.889Z,8.45
2022-11-17T07:17:59.072Z,7.95
2022-11-17T07:20:25.996Z,8.30
2022-11-17T07:23:00.050Z,8.45
2022-11-17T07:25:26.952Z,9.60
2022-11-17T07:27:59.562Z,8.43
2022-11-17T07:30:26.992Z,8.52
2022-11-17T07:32:54.994Z,8.43
2022-11-17T07:35:21.970Z,9.48
2022-11-17T07:37:50.313Z,8.38
2022-11-17T07:40:17.336Z,10.57
2022-11-17T07:42:50.910Z,9.52
2022-11-17T07:45:18.315Z,9.55
2022-11-17T07:47:45.375Z,8.75
2022-11-17T07:50:12.265Z,10.13
2022-11-17T07:52:41.549Z,9.90
2022-11-17T07:55:08.869Z,9.82
2022-11-17T07:57:36.616Z,9.10
2022-11-17T08:00:04.695Z,10.23
2022-11-17T08:02:31.778Z,9.55
2022-11-17T08:04:58.682Z,8.85
2022-11-17T08:07:25.829Z,9.57
2022-11-17T08:09:52.800Z,9.70
2022-11-17T08:12:19.923Z,10.18
2022-11-17T08:14:46.779Z,9.43
2022-11-17T08:17:14.123Z,10.18
2022-11-17T08:19:41.092Z,8.95
2022-11-17T08:22:08.310Z,9.55
2022-11-17T08:24:35.155Z,9.40
2022-11-17T08:27:02.312Z,8.98
2022-11-17T08:29:29.178Z,9.60
2022-11-17T08:31:56.349Z,8.68
2022-11-17T08:34:23.347Z,8.68
2022-11-17T08:36:50.575Z,9.25
2022-11-17T08:39:17.471Z,9.50
2022-11-17T08:41:44.723Z,9.77
2022-11-17T08:44:11.606Z,9.85
2022-11-17T08:46:38.798Z,8.55
2022-11-17T08:49:05.769Z,10.75
2022-11-17T08:51:33.302Z,10.30
2022-11-17T08:54:00.323Z,11.07
2022-11-17T08:56:27.622Z,8.73
2022-11-17T08:58:54.698Z,14.00
2022-11-17T09:01:21.888Z,9.10
2022-11-17T09:03:49.065Z,9.02
2022-11-17T09:06:18.131Z,8.88
2022-11-17T09:08:56.479Z,9.45
2022-11-17T09:11:23.869Z,9.63
2022-11-17T09:13:51.025Z,9.50
2022-11-17T09:16:18.602Z,9.55
2022-11-17T09:18:45.768Z,8.65
2022-11-17T09:21:15.755Z,9.93
2022-11-17T09:23:43.325Z,9.23
2022-11-17T09:26:14.671Z,9.13
2022-11-17T09:28:43.070Z,9.85
2022-11-17T09:31:14.429Z,9.90
2022-11-17T09:33:43.348Z,10.55
2022-11-17T09:36:12.844Z,11.05
2022-11-17T09:38:40.842Z,10.38
2022-11-17T09:41:33.446Z,12.10
2022-11-17T09:44:39.994Z,8.82
2022-11-17T09:47:48.044Z,9.43
2022-11-17T09:50:37.299Z,8.52
2022-11-17T09:53:29.466Z,9.15
2022-11-17T09:56:02.735Z,8.88
2022-11-17T09:58:50.996Z,8.98
2022-11-17T10:01:22.055Z,9.38
2022-11-17T10:03:53.633Z,8.23
2022-11-17T10:06:28.694Z,8.77
2022-11-17T10:09:07.043Z,8.60
2022-11-17T10:11:41.483Z,9.60
2022-11-17T10:14:08.615Z,9.23
2022-11-17T10:16:37.663Z,9.30
2022-11-17T10:19:20.163Z,9.35
2022-11-17T10:21:57.788Z,8.82
2022-11-17T10:24:38.844Z,9.38
2022-11-17T10:27:23.556Z,8.60
2022-11-17T10:30:20.108Z,8.48
2022-11-17T10:32:56.946Z,10.30
2022-11-17T10:35:36.382Z,9.00
2022-11-17T10:38:13.849Z,9.13
2022-11-17T10:40:40.917Z,10.40
2022-11-17T10:43:13.864Z,10.13
2022-11-17T10:45:50.978Z,10.07
2022-11-17T10:48:31.830Z,9.10
2022-11-17T10:51:19.564Z,9.27
2022-11-17T10:54:17.153Z,9.65
2022-11-17T10:56:52.092Z,9.70
2022-11-17T10:59:20.745Z,10.88
2022-11-17T11:01:51.519Z,10.43
2022-11-17T11:04:32.312Z,10.93
2022-11-17T11:07:28.914Z,10.63
2022-11-17T11:10:26.417Z,9.25
2022-11-17T11:13:44.275Z,9.77
2022-11-17T11:16:12.096Z,10.02
2022-11-17T11:18:39.520Z,9.20
2022-11-17T11:21:50.591Z,10.18
2022-11-17T11:24:34.953Z,11.40
2022-11-17T11:27:28.244Z,10.73
2022-11-17T11:30:06.319Z,11.40
2022-11-17T11:32:58.586Z,11.57
2022-11-17T11:36:02.436Z,9.98
2022-11-17T11:39:04.027Z,9.38
2022-11-17T11:41:36.938Z,11.48
2022-11-17T11:44:22.986Z,11.45
2022-11-17T11:47:26.944Z,11.82
2022-11-17T11:50:11.176Z,13.35
2022-11-17T11:52:44.847Z,12.33
2022-11-17T11:55:24.831Z,11.73
2022-11-17T11:58:17.376Z,12.50
2022-11-17T12:00:49.465Z,11.52
2022-11-17T12:03:24.264Z,14.73
2022-11-17T12:06:41.772Z,28.63
2022-11-17T12:09:36.792Z,13.43
2022-11-17T12:12:14.559Z,14.13
2022-11-17T12:15:19.274Z,12.75
2022-11-17T12:18:29.366Z,11.40
2022-11-17T12:21:06.020Z,12.32
2022-11-17T12:23:48.491Z,12.43
2022-11-17T12:26:31.588Z,11.18
2022-11-17T12:29:20.346Z,11.50
2022-11-17T12:31:56.689Z,12.75
2022-11-17T12:34:33.926Z,13.18
2022-11-17T12:37:19.346Z,12.52
2022-11-17T12:40:11.611Z,12.40
2022-11-17T12:43:16.873Z,13.93
2022-11-17T12:45:55.909Z,13.65
2022-11-17T12:48:35.112Z,14.75
2022-11-17T12:51:34.673Z,13.45
2022-11-17T12:54:38.412Z,13.20
2022-11-17T12:57:13.348Z,14.00
2022-11-17T13:00:02.662Z,14.00
2022-11-17T13:02:58.014Z,14.15
2022-11-17T13:05:30.216Z,14.95
2022-11-17T13:08:13.900Z,14.73
2022-11-17T13:10:41.848Z,15.25
2022-11-17T13:13:24.452Z,14.95
2022-11-17T13:15:55.881Z,15.32
2022-11-17T13:18:41.232Z,16.65
2022-11-17T13:21:26.686Z,15.13
2022-11-17T13:23:54.040Z,15.27
2022-11-17T13:26:35.841Z,15.63
2022-11-17T13:29:09.950Z,15.80
2022-11-17T13:31:37.213Z,15.57
2022-11-17T13:34:10.253Z,14.68
2022-11-17T13:36:52.955Z,14.32
2022-11-17T13:39:25.739Z,14.27
2022-11-17T13:41:56.435Z,14.68
2022-11-17T13:44:27.106Z,14.02
2022-11-17T13:46:54.258Z,14.38
2022-11-17T13:49:34.537Z,14.43
2022-11-17T13:52:04.805Z,14.05
2022-11-17T13:54:32.545Z,13.73
2022-11-17T13:57:08.756Z,13.65
2022-11-17T13:59:39.207Z,13.70
2022-11-17T14:02:26.168Z,14.63
2022-11-17T14:05:11.238Z,13.38
2022-11-17T14:10:22.406Z,12.75
2022-11-17T14:12:53.490Z,14.60
2022-11-17T14:15:28.520Z,13.90
2022-11-17T14:17:59.955Z,14.48
2022-11-17T14:20:36.212Z,14.35
2022-11-17T14:23:10.532Z,14.20
2022-11-17T14:25:53.162Z,13.60
2022-11-17T14:28:25.514Z,13.52
2022-11-17T14:30:57.836Z,12.70
2022-11-17T14:33:25.941Z,11.80
2022-11-17T14:35:57.043Z,11.80
2022-11-17T14:38:24.803Z,12.07
2022-11-17T14:40:53.566Z,12.48
2022-11-17T14:43:21.983Z,11.75
2022-11-17T14:45:50.537Z,10.52
2022-11-17T14:48:19.685Z,10.25
2022-11-17T14:50:47.548Z,10.52
2022-11-17T14:53:15.120Z,10.55
2022-11-17T14:55:41.990Z,9.60
2022-11-17T14:58:10.036Z,11.63
2022-11-17T15:00:37.734Z,10.70
2022-11-17T15:03:05.338Z,10.52
2022-11-17T15:05:32.588Z,9.90
2022-11-17T15:08:00.107Z,9.98
2022-11-17T15:10:26.966Z,11.02
2022-11-17T15:12:54.145Z,9.13
2022-11-17T15:15:21.166Z,9.55
2022-11-17T15:17:48.227Z,9.55
2022-11-17T15:20:15.211Z,9.95
2022-11-17T15:22:42.492Z,9.75
2022-11-17T15:25:09.698Z,10.32
2022-11-17T15:27:36.782Z,9.52
2022-11-17T15:30:04.856Z,10.25
2022-11-17T15:32:32.145Z,9.73
2022-11-17T15:34:59.058Z,10.07
2022-11-17T15:37:26.281Z,9.73
2022-11-17T15:39:53.819Z,10.95
2022-11-17T15:42:20.968Z,10.63
2022-11-17T15:44:47.800Z,10.10
2022-11-17T15:47:14.919Z,11.30
2022-11-17T15:49:41.771Z,10.82
2022-11-17T15:52:08.874Z,12.80
2022-11-17T15:54:35.703Z,12.23
2022-11-17T15:57:02.909Z,11.43
2022-11-17T15:59:29.964Z,11.75
2022-11-17T16:01:57.145Z,12.90
2022-11-17T16:04:24.349Z,13.20
2022-11-17T16:06:51.625Z,12.77
2022-11-17T16:09:18.731Z,12.38
2022-11-17T16:11:46.032Z,14.02
2022-11-17T16:14:14.849Z,14.52
2022-11-17T16:16:42.247Z,14.35
2022-11-17T16:19:09.348Z,13.80
2022-11-17T16:21:36.503Z,14.07
2022-11-17T16:24:03.618Z,14.60
2022-11-17T16:26:31.372Z,14.77
2022-11-17T16:29:01.823Z,14.55
2022-11-17T16:31:32.916Z,16.02
2022-11-17T16:34:21.915Z,15.18
2022-11-17T16:36:49.132Z,14.70
2022-11-17T16:39:17.650Z,15.27
2022-11-17T16:41:45.757Z,15.75
2022-11-17T16:44:17.144Z,16.15
2022-11-17T16:46:47.884Z,16.08
2022-11-17T16:49:18.343Z,17.27
2022-11-17T16:51:51.679Z,17.80
2022-11-17T16:54:19.827Z,16.58
2022-11-17T16:56:47.094Z,16.63
2022-11-17T16:59:15.029Z,17.00
2022-11-17T17:01:42.424Z,18.52
2022-11-17T17:04:10.996Z,17.77
2022-11-17T17:06:44.083Z,18.08
2022-11-17T17:09:14.111Z,16.73
2022-11-17T17:11:41.756Z,17.90
2022-11-17T17:14:13.318Z,19.02
2022-11-17T17:16:41.489Z,19.83
2022-11-17T17:19:11.914Z,18.58
2022-11-17T17:21:40.959Z,18.55
2022-11-17T17:24:09.282Z,20.33
2022-11-17T17:26:39.197Z,21.13
2022-11-17T17:29:06.655Z,18.70
2022-11-17T17:31:38.008Z,18.92
2022-11-17T17:34:06.656Z,20.30
2022-11-17T17:36:35.193Z,20.27
2022-11-17T17:39:03.542Z,19.35
2022-11-17T17:41:35.097Z,20.33
2022-11-17T17:44:05.281Z,19.45
2022-11-17T17:46:37.503Z,19.45
2022-11-17T17:49:05.075Z,19.40
2022-11-17T17:51:32.185Z,19.42
2022-11-17T17:54:02.067Z,19.05
2022-11-17T17:56:30.801Z,19.73
2022-11-17T17:58:58.690Z,19.80
2022-11-17T18:01:29.386Z,23.10
2022-11-17T18:04:04.725Z,19.63
2022-11-17T18:06:39.087Z,21.65
2022-11-17T18:09:07.994Z,21.25
2022-11-17T18:11:35.950Z,22.42
2022-11-17T18:14:04.321Z,21.35
2022-11-17T18:16:34.086Z,20.38
2022-11-17T18:19:05.462Z,20.77
2022-11-17T18:21:33.331Z,20.45
2022-11-17T18:24:02.429Z,20.77
2022-11-17T18:26:35.511Z,22.08
2022-11-17T18:29:14.806Z,21.08
2022-11-17T18:31:43.034Z,20.95
2022-11-17T18:34:25.517Z,21.42
2022-11-17T18:36:58.405Z,20.63
2022-11-17T18:39:25.477Z,20.67
2022-11-17T18:41:52.728Z,25.30
2022-11-17T18:44:20.053Z,21.67
2022-11-17T18:46:47.817Z,20.52
2022-11-17T18:49:15.000Z,22.52
2022-11-17T18:51:42.666Z,34.45
2022-11-17T18:54:12.632Z,29.40
2022-11-17T18:56:40.147Z,29.15
2022-11-17T18:59:11.818Z,26.90
2022-11-17T19:01:42.870Z,26.30
2022-11-17T19:04:13.713Z,24.40
2022-11-17T19:06:41.275Z,32.88
2022-11-17T19:09:08.584Z,33.20
2022-11-17T19:11:35.960Z,25.48
2022-11-17T19:14:07.292Z,27.85
2022-11-17T19:16:44.076Z,29.40
2022-11-17T19:19:13.663Z,25.95
2022-11-17T19:21:41.524Z,25.80
2022-11-17T19:24:09.159Z,22.05
2022-11-17T19:26:36.339Z,23.60
2022-11-17T19:29:14.303Z,23.85
2022-11-17T19:31:43.992Z,22.80
2022-11-17T19:34:11.462Z,25.08
2022-11-17T19:36:39.488Z,25.17
2022-11-17T19:39:06.497Z,25.23
2022-11-17T19:41:38.618Z,23.35
2022-11-17T19:44:08.763Z,26.52
2022-11-17T19:46:37.175Z,26.95
2022-11-17T19:49:06.136Z,26.20
2022-11-17T19:51:37.023Z,27.98
2022-11-17T19:54:08.027Z,25.75
2022-11-17T19:56:36.491Z,25.10
2022-11-17T19:59:03.658Z,26.88
2022-11-17T20:01:32.246Z,26.45
2022-11-17T20:04:01.196Z,24.88
2022-11-17T20:06:36.199Z,25.10
2022-11-17T20:09:12.522Z,24.70
2022-11-17T20:11:40.987Z,25.10
2022-11-17T20:14:08.032Z,25.48
2022-11-17T20:16:36.853Z,27.08
2022-11-17T20:19:03.847Z,25.15
2022-11-17T20:21:31.895Z,24.80
2022-11-17T20:23:59.440Z,25.23
2022-11-17T20:26:32.649Z,25.45
2022-11-17T20:29:01.069Z,25.73
2022-11-17T20:31:33.054Z,24.52
2022-11-17T20:34:02.149Z,26.85
2022-11-17T20:36:32.659Z,25.13
2022-11-17T20:39:03.824Z,25.13
2022-11-17T20:41:31.344Z,26.75
2022-11-17T20:44:00.466Z,25.38
2022-11-17T20:46:28.281Z,26.55
2022-11-17T20:48:55.307Z,26.77
2022-11-17T20:51:25.038Z,26.17
2022-11-17T20:53:52.722Z,23.15
2022-11-17T20:56:21.961Z,24.40
2022-11-17T20:58:49.090Z,25.55
2022-11-17T21:01:19.873Z,25.33
2022-11-17T21:03:47.650Z,25.55
2022-11-17T21:06:15.959Z,25.70
2022-11-17T21:08:45.019Z,23.35
2022-11-17T21:11:37.314Z,23.95
2022-11-17T21:14:07.465Z,26.80
2022-11-17T21:16:37.819Z,27.23
2022-11-17T21:19:05.704Z,24.02
2022-11-17T21:21:33.396Z,26.48
2022-11-17T21:24:00.291Z,25.88
2022-11-17T21:26:28.115Z,25.67
2022-11-17T21:28:58.402Z,26.38
2022-11-17T21:31:31.289Z,24.30
2022-11-17T21:34:02.532Z,24.23
2022-11-17T21:36:34.413Z,25.88
2022-11-17T21:39:02.033Z,24.73
2022-11-17T21:41:34.768Z,26.42
2022-11-17T21:44:03.189Z,25.30
2022-11-17T21:46:33.959Z,26.00
2022-11-17T21:49:01.609Z,25.70
2022-11-17T21:51:33.513Z,27.25
2022-11-17T21:54:08.689Z,27.55
2022-11-17T21:56:36.676Z,26.55
2022-11-17T21:59:12.477Z,25.48
2022-11-17T22:01:40.393Z,23.40
2022-11-17T22:04:07.321Z,26.65
2022-11-17T22:06:34.821Z,29.63
2022-11-17T22:09:01.633Z,27.67
2022-11-17T22:11:37.609Z,25.27
2022-11-17T22:14:08.119Z,25.77
2022-11-17T22:16:38.139Z,25.45
2022-11-17T22:19:06.208Z,24.83
2022-11-17T22:21:33.816Z,25.77
2022-11-17T22:24:00.858Z,29.30
2022-11-17T22:26:28.293Z,28.75
2022-11-17T22:28:56.083Z,26.70
2022-11-17T22:31:24.146Z,27.70
2022-11-17T22:33:51.705Z,27.85
2022-11-17T22:36:19.913Z,27.27
2022-11-17T22:38:51.439Z,29.13
2022-11-17T22:41:21.932Z,27.52
2022-11-17T22:43:55.146Z,28.73
2022-11-17T22:46:26.374Z,28.02
2022-11-17T22:48:53.621Z,29.38
2022-11-17T22:51:40.035Z,27.83
2022-11-17T22:54:08.627Z,26.98
2022-11-17T22:56:36.412Z,25.73
2022-11-17T22:59:03.633Z,25.80
2022-11-17T23:01:30.892Z,25.45
2022-11-17T23:03:58.457Z,25.63
2022-11-17T23:06:27.435Z,24.02
2022-11-17T23:08:56.168Z,27.40
2022-11-17T23:11:39.551Z,26.23
2022-11-17T23:14:11.246Z,27.13
2022-11-17T23:16:39.479Z,25.10
2022-11-17T23:19:07.214Z,26.30
2022-11-17T23:21:34.348Z,27.42
2022-11-17T23:24:01.151Z,26.23
2022-11-17T23:26:28.380Z,27.02
2022-11-17T23:28:55.528Z,27.77
2022-11-17T23:31:22.603Z,28.77
2022-11-17T23:33:49.538Z,27.75
2022-11-17T23:36:20.146Z,27.85
2022-11-17T23:38:49.255Z,26.95
2022-11-17T23:41:19.875Z,26.88
2022-11-17T23:43:52.311Z,28.77
2022-11-17T23:46:23.442Z,26.13
2022-11-17T23:48:50.691Z,27.48
2022-11-17T23:51:22.977Z,26.58
2022-11-17T23:53:50.537Z,25.48
2022-11-17T23:56:20.457Z,25.92
2022-11-17T23:58:48.025Z,26.30
